sensor_id;sensor_type;location;lat;lon;timestamp;P1;durP1;ratioP1;P2;durP2;ratioP2
19802;SDS011;66074;50.764;6.090;2023-03-08T00:02:20;2.55;;;2.35;;
19802;SDS011;66074;50.764;6.090;2023-03-08T00:04:46;2.75;;;2.47;;
19802;SDS011;66074;50.764;6.090;2023-03-08T00:07:12;2.97;;;2.67;;
19802;SDS011;66074;50.764;6.090;2023-03-08T00:09:37;4.10;;;3.80;;
19802;SDS011;66074;50.764;6.090;2023-03-08T00:12:03;3.47;;;3.08;;
19802;SDS011;66074;50.764;6.090;2023-03-08T00:14:29;3.10;;;2.83;;
19802;SDS011;66074;50.764;6.090;2023-03-08T00:16:54;3.03;;;2.70;;
19802;SDS011;66074;50.764;6.090;2023-03-08T00:19:20;2.90;;;2.70;;
19802;SDS011;66074;50.764;6.090;2023-03-08T00:21:45;2.80;;;2.60;;
19802;SDS011;66074;50.764;6.090;2023-03-08T00:24:11;2.85;;;2.50;;
19802;SDS011;66074;50.764;6.090;2023-03-08T00:26:40;3.42;;;2.35;;
19802;SDS011;66074;50.764;6.090;2023-03-08T00:29:06;2.78;;;2.58;;
19802;SDS011;66074;50.764;6.090;2023-03-08T00:31:32;2.40;;;2.20;;
19802;SDS011;66074;50.764;6.090;2023-03-08T00:33:58;2.78;;;2.47;;
19802;SDS011;66074;50.764;6.090;2023-03-08T00:36:23;3.55;;;2.47;;
19802;SDS011;66074;50.764;6.090;2023-03-08T00:38:49;2.38;;;2.17;;
19802;SDS011;66074;50.764;6.090;2023-03-08T00:41:16;2.83;;;2.50;;
19802;SDS011;66074;50.764;6.090;2023-03-08T00:43:43;2.58;;;2.38;;
19802;SDS011;66074;50.764;6.090;2023-03-08T00:46:09;4.95;;;2.95;;
19802;SDS011;66074;50.764;6.090;2023-03-08T00:48:35;2.63;;;2.42;;
19802;SDS011;66074;50.764;6.090;2023-03-08T00:51:01;2.47;;;2.28;;
19802;SDS011;66074;50.764;6.090;2023-03-08T00:53:26;3.20;;;2.70;;
19802;SDS011;66074;50.764;6.090;2023-03-08T00:55:56;2.83;;;2.30;;
19802;SDS011;66074;50.764;6.090;2023-03-08T00:58:23;2.67;;;2.33;;
19802;SDS011;66074;50.764;6.090;2023-03-08T01:00:50;2.47;;;2.28;;
19802;SDS011;66074;50.764;6.090;2023-03-08T01:03:16;2.15;;;2.03;;
19802;SDS011;66074;50.764;6.090;2023-03-08T01:05:44;3.08;;;2.63;;
19802;SDS011;66074;50.764;6.090;2023-03-08T01:08:12;4.28;;;2.50;;
19802;SDS011;66074;50.764;6.090;2023-03-08T01:10:39;2.55;;;2.13;;
19802;SDS011;66074;50.764;6.090;2023-03-08T01:13:05;2.10;;;2.00;;
19802;SDS011;66074;50.764;6.090;2023-03-08T01:15:35;3.67;;;2.22;;
19802;SDS011;66074;50.764;6.090;2023-03-08T01:18:02;2.30;;;2.13;;
19802;SDS011;66074;50.764;6.090;2023-03-08T01:20:30;2.58;;;2.10;;
19802;SDS011;66074;50.764;6.090;2023-03-08T01:22:56;2.35;;;2.15;;
19802;SDS011;66074;50.764;6.090;2023-03-08T01:25:22;2.67;;;2.47;;
19802;SDS011;66074;50.764;6.090;2023-03-08T01:27:48;2.28;;;2.08;;
19802;SDS011;66074;50.764;6.090;2023-03-08T01:30:13;2.60;;;2.17;;
19802;SDS011;66074;50.764;6.090;2023-03-08T01:32:39;2.55;;;2.35;;
19802;SDS011;66074;50.764;6.090;2023-03-08T01:35:05;3.22;;;2.40;;
19802;SDS011;66074;50.764;6.090;2023-03-08T01:37:31;2.30;;;2.10;;
19802;SDS011;66074;50.764;6.090;2023-03-08T01:39:58;2.60;;;2.22;;
19802;SDS011;66074;50.764;6.090;2023-03-08T01:42:24;2.58;;;2.38;;
19802;SDS011;66074;50.764;6.090;2023-03-08T01:44:51;3.17;;;2.28;;
19802;SDS011;66074;50.764;6.090;2023-03-08T01:47:22;2.42;;;2.08;;
19802;SDS011;66074;50.764;6.090;2023-03-08T01:49:53;1.98;;;1.88;;
19802;SDS011;66074;50.764;6.090;2023-03-08T01:52:24;2.47;;;2.28;;
19802;SDS011;66074;50.764;6.090;2023-03-08T01:54:54;2.10;;;1.90;;
19802;SDS011;66074;50.764;6.090;2023-03-08T01:59:49;3.00;;;2.10;;
19802;SDS011;66074;50.764;6.090;2023-03-08T02:02:18;2.40;;;2.20;;
19802;SDS011;66074;50.764;6.090;2023-03-08T02:04:48;2.65;;;2.10;;
19802;SDS011;66074;50.764;6.090;2023-03-08T02:07:14;3.67;;;2.65;;
19802;SDS011;66074;50.764;6.090;2023-03-08T02:09:40;2.53;;;2.33;;
19802;SDS011;66074;50.764;6.090;2023-03-08T02:12:07;2.60;;;2.40;;
19802;SDS011;66074;50.764;6.090;2023-03-08T02:14:35;2.70;;;2.08;;
19802;SDS011;66074;50.764;6.090;2023-03-08T02:17:01;3.25;;;2.38;;
19802;SDS011;66074;50.764;6.090;2023-03-08T02:19:36;3.03;;;2.38;;
19802;SDS011;66074;50.764;6.090;2023-03-08T02:22:13;2.17;;;2.08;;
19802;SDS011;66074;50.764;6.090;2023-03-08T02:24:41;3.08;;;2.42;;
19802;SDS011;66074;50.764;6.090;2023-03-08T02:27:12;2.67;;;1.98;;
19802;SDS011;66074;50.764;6.090;2023-03-08T02:29:41;2.70;;;2.50;;
19802;SDS011;66074;50.764;6.090;2023-03-08T02:32:07;3.63;;;3.33;;
19802;SDS011;66074;50.764;6.090;2023-03-08T02:34:33;3.78;;;2.28;;
19802;SDS011;66074;50.764;6.090;2023-03-08T02:36:59;2.65;;;2.45;;
19802;SDS011;66074;50.764;6.090;2023-03-08T02:39:25;2.88;;;2.67;;
19802;SDS011;66074;50.764;6.090;2023-03-08T02:41:50;2.65;;;2.45;;
19802;SDS011;66074;50.764;6.090;2023-03-08T02:44:16;2.58;;;2.38;;
19802;SDS011;66074;50.764;6.090;2023-03-08T02:46:42;2.35;;;2.15;;
19802;SDS011;66074;50.764;6.090;2023-03-08T02:49:07;2.50;;;2.30;;
19802;SDS011;66074;50.764;6.090;2023-03-08T02:51:33;2.33;;;2.08;;
19802;SDS011;66074;50.764;6.090;2023-03-08T02:53:59;2.45;;;2.25;;
19802;SDS011;66074;50.764;6.090;2023-03-08T02:56:24;2.47;;;2.22;;
19802;SDS011;66074;50.764;6.090;2023-03-08T02:58:50;3.30;;;2.38;;
19802;SDS011;66074;50.764;6.090;2023-03-08T03:01:16;2.25;;;2.00;;
19802;SDS011;66074;50.764;6.090;2023-03-08T03:03:41;2.58;;;2.38;;
19802;SDS011;66074;50.764;6.090;2023-03-08T03:06:14;2.15;;;1.95;;
19802;SDS011;66074;50.764;6.090;2023-03-08T03:08:40;2.67;;;2.47;;
19802;SDS011;66074;50.764;6.090;2023-03-08T03:11:10;2.75;;;2.55;;
19802;SDS011;66074;50.764;6.090;2023-03-08T03:13:43;2.75;;;2.50;;
19802;SDS011;66074;50.764;6.090;2023-03-08T03:16:13;4.88;;;2.13;;
19802;SDS011;66074;50.764;6.090;2023-03-08T03:18:40;2.55;;;2.35;;
19802;SDS011;66074;50.764;6.090;2023-03-08T03:21:07;2.83;;;2.40;;
19802;SDS011;66074;50.764;6.090;2023-03-08T03:23:35;2.55;;;2.35;;
19802;SDS011;66074;50.764;6.090;2023-03-08T03:26:10;2.50;;;2.30;;
19802;SDS011;66074;50.764;6.090;2023-03-08T03:28:38;4.10;;;2.10;;
19802;SDS011;66074;50.764;6.090;2023-03-08T03:31:11;2.78;;;2.58;;
19802;SDS011;66074;50.764;6.090;2023-03-08T03:33:39;2.97;;;2.60;;
19802;SDS011;66074;50.764;6.090;2023-03-08T03:36:05;2.42;;;2.22;;
19802;SDS011;66074;50.764;6.090;2023-03-08T03:38:33;4.20;;;2.33;;
19802;SDS011;66074;50.764;6.090;2023-03-08T03:41:02;2.60;;;2.40;;
19802;SDS011;66074;50.764;6.090;2023-03-08T03:43:30;3.60;;;2.60;;
19802;SDS011;66074;50.764;6.090;2023-03-08T03:45:56;2.80;;;2.40;;
19802;SDS011;66074;50.764;6.090;2023-03-08T03:48:22;2.28;;;2.10;;
19802;SDS011;66074;50.764;6.090;2023-03-08T03:51:21;3.83;;;2.60;;
19802;SDS011;66074;50.764;6.090;2023-03-08T03:53:41;4.55;;;2.72;;
19802;SDS011;66074;50.764;6.090;2023-03-08T03:58:39;2.53;;;2.30;;
19802;SDS011;66074;50.764;6.090;2023-03-08T04:01:06;2.53;;;2.33;;
19802;SDS011;66074;50.764;6.090;2023-03-08T04:03:32;2.40;;;2.20;;
19802;SDS011;66074;50.764;6.090;2023-03-08T04:06:05;2.38;;;2.17;;
19802;SDS011;66074;50.764;6.090;2023-03-08T04:08:36;2.45;;;2.25;;
19802;SDS011;66074;50.764;6.090;2023-03-08T04:11:06;2.58;;;2.38;;
19802;SDS011;66074;50.764;6.090;2023-03-08T04:13:33;2.90;;;2.60;;
19802;SDS011;66074;50.764;6.090;2023-03-08T04:15:58;2.80;;;2.60;;
19802;SDS011;66074;50.764;6.090;2023-03-08T04:18:24;2.88;;;2.67;;
19802;SDS011;66074;50.764;6.090;2023-03-08T04:20:49;3.58;;;2.45;;
19802;SDS011;66074;50.764;6.090;2023-03-08T04:23:15;2.50;;;2.30;;
19802;SDS011;66074;50.764;6.090;2023-03-08T04:25:40;2.75;;;2.55;;
19802;SDS011;66074;50.764;6.090;2023-03-08T04:28:06;2.85;;;2.60;;
19802;SDS011;66074;50.764;6.090;2023-03-08T04:30:32;2.25;;;2.10;;
19802;SDS011;66074;50.764;6.090;2023-03-08T04:32:57;2.25;;;2.10;;
19802;SDS011;66074;50.764;6.090;2023-03-08T04:35:23;2.10;;;1.90;;
19802;SDS011;66074;50.764;6.090;2023-03-08T04:37:48;2.25;;;1.90;;
19802;SDS011;66074;50.764;6.090;2023-03-08T04:40:14;1.83;;;1.60;;
19802;SDS011;66074;50.764;6.090;2023-03-08T04:42:39;2.03;;;1.50;;
19802;SDS011;66074;50.764;6.090;2023-03-08T04:45:05;1.70;;;1.60;;
19802;SDS011;66074;50.764;6.090;2023-03-08T04:47:32;2.70;;;1.80;;
19802;SDS011;66074;50.764;6.090;2023-03-08T04:49:57;5.65;;;1.65;;
19802;SDS011;66074;50.764;6.090;2023-03-08T04:52:23;1.52;;;1.42;;
19802;SDS011;66074;50.764;6.090;2023-03-08T04:54:49;1.75;;;1.50;;
19802;SDS011;66074;50.764;6.090;2023-03-08T04:57:14;1.80;;;1.70;;
19802;SDS011;66074;50.764;6.090;2023-03-08T04:59:41;2.15;;;1.55;;
19802;SDS011;66074;50.764;6.090;2023-03-08T05:02:07;2.42;;;1.85;;
19802;SDS011;66074;50.764;6.090;2023-03-08T05:04:33;3.45;;;1.88;;
19802;SDS011;66074;50.764;6.090;2023-03-08T05:06:59;2.45;;;1.80;;
19802;SDS011;66074;50.764;6.090;2023-03-08T05:09:24;2.00;;;1.90;;
19802;SDS011;66074;50.764;6.090;2023-03-08T05:11:50;1.70;;;1.60;;
19802;SDS011;66074;50.764;6.090;2023-03-08T05:14:16;2.30;;;2.10;;
19802;SDS011;66074;50.764;6.090;2023-03-08T05:16:41;1.80;;;1.70;;
19802;SDS011;66074;50.764;6.090;2023-03-08T05:19:07;2.30;;;1.98;;
19802;SDS011;66074;50.764;6.090;2023-03-08T05:21:32;1.88;;;1.77;;
19802;SDS011;66074;50.764;6.090;2023-03-08T05:23:58;1.88;;;1.77;;
19802;SDS011;66074;50.764;6.090;2023-03-08T05:26:24;2.92;;;1.95;;
19802;SDS011;66074;50.764;6.090;2023-03-08T05:28:50;2.00;;;1.80;;
19802;SDS011;66074;50.764;6.090;2023-03-08T05:31:17;1.90;;;1.75;;
19802;SDS011;66074;50.764;6.090;2023-03-08T05:33:45;2.33;;;1.85;;
19802;SDS011;66074;50.764;6.090;2023-03-08T05:36:13;1.90;;;1.80;;
19802;SDS011;66074;50.764;6.090;2023-03-08T05:38:39;2.47;;;1.80;;
19802;SDS011;66074;50.764;6.090;2023-03-08T05:41:06;1.80;;;1.70;;
19802;SDS011;66074;50.764;6.090;2023-03-08T05:43:33;1.80;;;1.70;;
19802;SDS011;66074;50.764;6.090;2023-03-08T05:46:00;1.90;;;1.80;;
19802;SDS011;66074;50.764;6.090;2023-03-08T05:48:27;1.50;;;1.40;;
19802;SDS011;66074;50.764;6.090;2023-03-08T05:50:53;1.83;;;1.73;;
19802;SDS011;66074;50.764;6.090;2023-03-08T05:53:19;2.53;;;2.33;;
19802;SDS011;66074;50.764;6.090;2023-03-08T05:55:45;3.05;;;1.45;;
19802;SDS011;66074;50.764;6.090;2023-03-08T05:58:11;2.95;;;2.00;;
19802;SDS011;66074;50.764;6.090;2023-03-08T06:00:37;1.77;;;1.67;;
19802;SDS011;66074;50.764;6.090;2023-03-08T06:03:02;2.08;;;1.98;;
19802;SDS011;66074;50.764;6.090;2023-03-08T06:05:32;2.03;;;1.85;;
19802;SDS011;66074;50.764;6.090;2023-03-08T06:07:58;2.25;;;2.05;;
19802;SDS011;66074;50.764;6.090;2023-03-08T06:10:24;1.85;;;1.75;;
19802;SDS011;66074;50.764;6.090;2023-03-08T06:12:50;1.83;;;1.73;;
19802;SDS011;66074;50.764;6.090;2023-03-08T06:15:16;1.45;;;1.35;;
19802;SDS011;66074;50.764;6.090;2023-03-08T06:17:41;1.70;;;1.33;;
19802;SDS011;66074;50.764;6.090;2023-03-08T06:20:07;1.48;;;1.38;;
19802;SDS011;66074;50.764;6.090;2023-03-08T06:22:33;1.50;;;1.10;;
19802;SDS011;66074;50.764;6.090;2023-03-08T06:25:00;1.45;;;1.35;;
19802;SDS011;66074;50.764;6.090;2023-03-08T06:27:25;1.33;;;1.23;;
19802;SDS011;66074;50.764;6.090;2023-03-08T06:29:51;1.33;;;1.23;;
19802;SDS011;66074;50.764;6.090;2023-03-08T06:32:17;1.58;;;1.48;;
19802;SDS011;66074;50.764;6.090;2023-03-08T06:34:43;1.50;;;1.40;;
19802;SDS011;66074;50.764;6.090;2023-03-08T06:37:09;1.75;;;1.65;;
19802;SDS011;66074;50.764;6.090;2023-03-08T06:39:35;1.40;;;1.30;;
19802;SDS011;66074;50.764;6.090;2023-03-08T06:42:01;1.40;;;1.30;;
19802;SDS011;66074;50.764;6.090;2023-03-08T06:44:27;1.80;;;1.70;;
19802;SDS011;66074;50.764;6.090;2023-03-08T06:46:53;3.63;;;2.15;;
19802;SDS011;66074;50.764;6.090;2023-03-08T06:49:20;2.42;;;2.22;;
19802;SDS011;66074;50.764;6.090;2023-03-08T06:51:46;2.20;;;1.95;;
19802;SDS011;66074;50.764;6.090;2023-03-08T06:54:11;22.65;;;20.33;;
19802;SDS011;66074;50.764;6.090;2023-03-08T06:56:44;5.10;;;4.60;;
19802;SDS011;66074;50.764;6.090;2023-03-08T06:59:11;2.92;;;2.72;;
19802;SDS011;66074;50.764;6.090;2023-03-08T07:01:37;2.00;;;1.90;;
19802;SDS011;66074;50.764;6.090;2023-03-08T07:04:03;2.47;;;2.25;;
19802;SDS011;66074;50.764;6.090;2023-03-08T07:06:28;2.27;;;2.17;;
19802;SDS011;66074;50.764;6.090;2023-03-08T07:08:54;2.20;;;2.10;;
19802;SDS011;66074;50.764;6.090;2023-03-08T07:11:19;1.85;;;1.75;;
19802;SDS011;66074;50.764;6.090;2023-03-08T07:13:45;2.10;;;2.00;;
19802;SDS011;66074;50.764;6.090;2023-03-08T07:16:11;2.78;;;2.55;;
19802;SDS011;66074;50.764;6.090;2023-03-08T07:18:37;2.00;;;1.90;;
19802;SDS011;66074;50.764;6.090;2023-03-08T07:21:03;2.20;;;1.98;;
19802;SDS011;66074;50.764;6.090;2023-03-08T07:23:29;3.33;;;2.33;;
19802;SDS011;66074;50.764;6.090;2023-03-08T07:25:55;3.63;;;3.33;;
19802;SDS011;66074;50.764;6.090;2023-03-08T07:28:20;3.55;;;3.25;;
19802;SDS011;66074;50.764;6.090;2023-03-08T07:30:47;3.63;;;3.35;;
19802;SDS011;66074;50.764;6.090;2023-03-08T07:33:13;3.78;;;3.47;;
19802;SDS011;66074;50.764;6.090;2023-03-08T07:35:39;3.72;;;3.42;;
19802;SDS011;66074;50.764;6.090;2023-03-08T07:38:04;2.92;;;2.63;;
19802;SDS011;66074;50.764;6.090;2023-03-08T07:40:30;3.25;;;3.03;;
19802;SDS011;66074;50.764;6.090;2023-03-08T07:42:56;3.25;;;3.05;;
19802;SDS011;66074;50.764;6.090;2023-03-08T07:45:21;3.60;;;3.33;;
19802;SDS011;66074;50.764;6.090;2023-03-08T07:47:50;3.75;;;3.45;;
19802;SDS011;66074;50.764;6.090;2023-03-08T07:50:20;5.45;;;3.42;;
19802;SDS011;66074;50.764;6.090;2023-03-08T07:52:46;4.30;;;4.00;;
19802;SDS011;66074;50.764;6.090;2023-03-08T07:55:12;4.53;;;4.13;;
19802;SDS011;66074;50.764;6.090;2023-03-08T07:57:37;4.87;;;4.47;;
19802;SDS011;66074;50.764;6.090;2023-03-08T08:00:03;4.63;;;4.22;;
19802;SDS011;66074;50.764;6.090;2023-03-08T08:02:33;4.90;;;4.50;;
19802;SDS011;66074;50.764;6.090;2023-03-08T08:05:00;4.47;;;4.07;;
19802;SDS011;66074;50.764;6.090;2023-03-08T08:07:26;4.40;;;4.00;;
19802;SDS011;66074;50.764;6.090;2023-03-08T08:09:52;3.88;;;3.58;;
19802;SDS011;66074;50.764;6.090;2023-03-08T08:12:18;3.90;;;3.60;;
19802;SDS011;66074;50.764;6.090;2023-03-08T08:14:43;3.97;;;3.67;;
19802;SDS011;66074;50.764;6.090;2023-03-08T08:17:10;3.72;;;3.42;;
19802;SDS011;66074;50.764;6.090;2023-03-08T08:19:35;4.40;;;4.10;;
19802;SDS011;66074;50.764;6.090;2023-03-08T08:22:01;5.18;;;4.78;;
19802;SDS011;66074;50.764;6.090;2023-03-08T08:24:28;6.18;;;5.43;;
19802;SDS011;66074;50.764;6.090;2023-03-08T08:26:54;4.57;;;4.18;;
19802;SDS011;66074;50.764;6.090;2023-03-08T08:29:20;3.92;;;3.63;;
19802;SDS011;66074;50.764;6.090;2023-03-08T08:31:46;4.38;;;4.07;;
19802;SDS011;66074;50.764;6.090;2023-03-08T08:34:11;6.75;;;6.10;;
19802;SDS011;66074;50.764;6.090;2023-03-08T08:36:37;4.90;;;4.50;;
19802;SDS011;66074;50.764;6.090;2023-03-08T08:39:03;4.80;;;4.40;;
19802;SDS011;66074;50.764;6.090;2023-03-08T08:41:29;5.43;;;5.03;;
19802;SDS011;66074;50.764;6.090;2023-03-08T08:43:56;4.88;;;4.47;;
19802;SDS011;66074;50.764;6.090;2023-03-08T08:46:24;6.38;;;4.65;;
19802;SDS011;66074;50.764;6.090;2023-03-08T08:48:52;5.43;;;4.95;;
19802;SDS011;66074;50.764;6.090;2023-03-08T08:51:18;5.10;;;4.70;;
19802;SDS011;66074;50.764;6.090;2023-03-08T08:53:44;6.03;;;5.40;;
19802;SDS011;66074;50.764;6.090;2023-03-08T08:56:11;5.75;;;4.90;;
19802;SDS011;66074;50.764;6.090;2023-03-08T08:58:41;6.20;;;5.03;;
19802;SDS011;66074;50.764;6.090;2023-03-08T09:01:13;5.70;;;5.20;;
19802;SDS011;66074;50.764;6.090;2023-03-08T09:03:41;6.10;;;5.57;;
19802;SDS011;66074;50.764;6.090;2023-03-08T09:06:07;5.78;;;5.28;;
19802;SDS011;66074;50.764;6.090;2023-03-08T09:08:33;6.68;;;5.80;;
19802;SDS011;66074;50.764;6.090;2023-03-08T09:11:02;8.10;;;5.90;;
19802;SDS011;66074;50.764;6.090;2023-03-08T09:13:29;7.03;;;6.00;;
19802;SDS011;66074;50.764;6.090;2023-03-08T09:15:55;7.07;;;6.47;;
19802;SDS011;66074;50.764;6.090;2023-03-08T09:18:21;7.95;;;6.30;;
19802;SDS011;66074;50.764;6.090;2023-03-08T09:20:46;6.35;;;5.85;;
19802;SDS011;66074;50.764;6.090;2023-03-08T09:23:12;7.43;;;6.65;;
19802;SDS011;66074;50.764;6.090;2023-03-08T09:25:37;7.78;;;6.82;;
19802;SDS011;66074;50.764;6.090;2023-03-08T09:28:03;7.15;;;6.45;;
19802;SDS011;66074;50.764;6.090;2023-03-08T09:30:29;7.05;;;6.25;;
19802;SDS011;66074;50.764;6.090;2023-03-08T09:32:56;7.25;;;6.10;;
19802;SDS011;66074;50.764;6.090;2023-03-08T09:35:23;7.10;;;6.38;;
19802;SDS011;66074;50.764;6.090;2023-03-08T09:37:48;6.30;;;5.80;;
19802;SDS011;66074;50.764;6.090;2023-03-08T09:40:18;7.28;;;6.65;;
19802;SDS011;66074;50.764;6.090;2023-03-08T09:42:46;8.05;;;7.25;;
19802;SDS011;66074;50.764;6.090;2023-03-08T09:45:22;7.43;;;6.72;;
19802;SDS011;66074;50.764;6.090;2023-03-08T09:47:51;10.18;;;7.93;;
19802;SDS011;66074;50.764;6.090;2023-03-08T09:50:32;12.07;;;10.88;;
19802;SDS011;66074;50.764;6.090;2023-03-08T09:53:35;10.20;;;9.20;;
19802;SDS011;66074;50.764;6.090;2023-03-08T10:01:57;9.90;;;7.00;;
19802;SDS011;66074;50.764;6.090;2023-03-08T10:09:35;9.35;;;8.48;;
19802;SDS011;66074;50.764;6.090;2023-03-08T10:12:22;8.05;;;7.35;;
19802;SDS011;66074;50.764;6.090;2023-03-08T10:15:10;9.50;;;8.45;;
19802;SDS011;66074;50.764;6.090;2023-03-08T10:20:20;8.20;;;7.50;;
19802;SDS011;66074;50.764;6.090;2023-03-08T10:22:59;7.75;;;7.05;;
19802;SDS011;66074;50.764;6.090;2023-03-08T10:25:38;11.13;;;7.93;;
19802;SDS011;66074;50.764;6.090;2023-03-08T10:28:08;7.55;;;6.85;;
19802;SDS011;66074;50.764;6.090;2023-03-08T10:33:14;8.50;;;7.80;;
19802;SDS011;66074;50.764;6.090;2023-03-08T10:38:31;10.15;;;9.25;;
19802;SDS011;66074;50.764;6.090;2023-03-08T10:41:02;7.68;;;6.97;;
19802;SDS011;66074;50.764;6.090;2023-03-08T10:43:47;8.77;;;7.88;;
19802;SDS011;66074;50.764;6.090;2023-03-08T10:46:15;9.90;;;9.07;;
19802;SDS011;66074;50.764;6.090;2023-03-08T10:48:43;8.30;;;7.60;;
19802;SDS011;66074;50.764;6.090;2023-03-08T10:51:22;8.32;;;7.63;;
19802;SDS011;66074;50.764;6.090;2023-03-08T10:56:30;9.90;;;9.05;;
19802;SDS011;66074;50.764;6.090;2023-03-08T10:59:30;8.93;;;8.10;;
19802;SDS011;66074;50.764;6.090;2023-03-08T11:02:14;10.00;;;9.10;;
19802;SDS011;66074;50.764;6.090;2023-03-08T11:04:53;9.40;;;8.55;;
19802;SDS011;66074;50.764;6.090;2023-03-08T11:07:21;9.63;;;8.68;;
19802;SDS011;66074;50.764;6.090;2023-03-08T11:09:49;8.40;;;7.63;;
19802;SDS011;66074;50.764;6.090;2023-03-08T11:12:22;9.70;;;8.27;;
19802;SDS011;66074;50.764;6.090;2023-03-08T11:14:50;9.23;;;7.95;;
19802;SDS011;66074;50.764;6.090;2023-03-08T11:17:31;8.57;;;7.78;;
19802;SDS011;66074;50.764;6.090;2023-03-08T11:23:01;9.05;;;8.35;;
19802;SDS011;66074;50.764;6.090;2023-03-08T11:25:44;9.50;;;8.27;;
19802;SDS011;66074;50.764;6.090;2023-03-08T11:39:01;8.63;;;7.78;;
19802;SDS011;66074;50.764;6.090;2023-03-08T11:41:41;7.80;;;7.10;;
19802;SDS011;66074;50.764;6.090;2023-03-08T11:44:29;6.78;;;6.20;;
19802;SDS011;66074;50.764;6.090;2023-03-08T11:52:49;7.47;;;6.88;;
19802;SDS011;66074;50.764;6.090;2023-03-08T11:58:05;6.93;;;6.30;;
19802;SDS011;66074;50.764;6.090;2023-03-08T12:00:39;7.57;;;7.03;;
19802;SDS011;66074;50.764;6.090;2023-03-08T12:05:39;6.47;;;5.97;;
19802;SDS011;66074;50.764;6.090;2023-03-08T12:08:12;7.80;;;7.05;;
19802;SDS011;66074;50.764;6.090;2023-03-08T12:10:56;9.07;;;6.85;;
19802;SDS011;66074;50.764;6.090;2023-03-08T12:13:33;8.50;;;7.10;;
19802;SDS011;66074;50.764;6.090;2023-03-08T12:22:00;7.57;;;6.90;;
19802;SDS011;66074;50.764;6.090;2023-03-08T12:24:42;9.38;;;7.22;;
19802;SDS011;66074;50.764;6.090;2023-03-08T12:32:35;7.20;;;6.60;;
19802;SDS011;66074;50.764;6.090;2023-03-08T12:35:03;7.25;;;6.55;;
19802;SDS011;66074;50.764;6.090;2023-03-08T12:37:53;10.00;;;7.47;;
19802;SDS011;66074;50.764;6.090;2023-03-08T12:43:01;7.25;;;6.65;;
19802;SDS011;66074;50.764;6.090;2023-03-08T12:45:46;7.05;;;6.45;;
19802;SDS011;66074;50.764;6.090;2023-03-08T12:58:31;6.15;;;5.57;;
19802;SDS011;66074;50.764;6.090;2023-03-08T13:01:00;6.70;;;6.10;;
19802;SDS011;66074;50.764;6.090;2023-03-08T13:03:35;8.90;;;7.20;;
19802;SDS011;66074;50.764;6.090;2023-03-08T13:14:41;7.95;;;6.25;;
19802;SDS011;66074;50.764;6.090;2023-03-08T13:19:56;5.72;;;5.22;;
19802;SDS011;66074;50.764;6.090;2023-03-08T13:22:29;5.70;;;5.20;;
19802;SDS011;66074;50.764;6.090;2023-03-08T13:25:12;6.38;;;5.78;;
19802;SDS011;66074;50.764;6.090;2023-03-08T13:30:34;7.25;;;6.57;;
19802;SDS011;66074;50.764;6.090;2023-03-08T13:33:11;7.70;;;6.57;;
19802;SDS011;66074;50.764;6.090;2023-03-08T13:35:39;8.00;;;7.30;;
19802;SDS011;66074;50.764;6.090;2023-03-08T13:38:15;7.18;;;6.47;;
19802;SDS011;66074;50.764;6.090;2023-03-08T13:40:49;8.07;;;7.35;;
19802;SDS011;66074;50.764;6.090;2023-03-08T13:43:16;8.15;;;7.35;;
19802;SDS011;66074;50.764;6.090;2023-03-08T13:45:45;9.07;;;8.13;;
19802;SDS011;66074;50.764;6.090;2023-03-08T13:48:12;10.98;;;8.10;;
19802;SDS011;66074;50.764;6.090;2023-03-08T13:50:43;8.85;;;7.90;;
19802;SDS011;66074;50.764;6.090;2023-03-08T13:53:16;9.10;;;8.02;;
19802;SDS011;66074;50.764;6.090;2023-03-08T13:55:45;8.68;;;7.97;;
19802;SDS011;66074;50.764;6.090;2023-03-08T14:01:00;9.25;;;8.40;;
19802;SDS011;66074;50.764;6.090;2023-03-08T14:03:41;10.35;;;9.45;;
19802;SDS011;66074;50.764;6.090;2023-03-08T14:06:24;10.27;;;9.38;;
19802;SDS011;66074;50.764;6.090;2023-03-08T14:08:54;10.40;;;9.40;;
19802;SDS011;66074;50.764;6.090;2023-03-08T14:11:36;10.63;;;9.60;;
19802;SDS011;66074;50.764;6.090;2023-03-08T14:14:04;11.48;;;9.73;;
19802;SDS011;66074;50.764;6.090;2023-03-08T14:21:50;10.63;;;9.63;;
19802;SDS011;66074;50.764;6.090;2023-03-08T14:24:22;11.35;;;10.20;;
19802;SDS011;66074;50.764;6.090;2023-03-08T14:26:54;11.70;;;10.60;;
19802;SDS011;66074;50.764;6.090;2023-03-08T14:29:43;10.45;;;9.35;;
19802;SDS011;66074;50.764;6.090;2023-03-08T14:39:36;11.45;;;10.35;;
19802;SDS011;66074;50.764;6.090;2023-03-08T14:42:08;11.00;;;10.00;;
19802;SDS011;66074;50.764;6.090;2023-03-08T14:44:34;10.73;;;9.63;;
19802;SDS011;66074;50.764;6.090;2023-03-08T14:47:07;10.57;;;9.68;;
19802;SDS011;66074;50.764;6.090;2023-03-08T14:49:34;11.60;;;10.40;;
19802;SDS011;66074;50.764;6.090;2023-03-08T14:52:00;11.27;;;10.27;;
19802;SDS011;66074;50.764;6.090;2023-03-08T14:56:57;11.88;;;10.77;;
19802;SDS011;66074;50.764;6.090;2023-03-08T14:59:40;12.30;;;11.13;;
19802;SDS011;66074;50.764;6.090;2023-03-08T15:02:09;11.80;;;10.68;;
19802;SDS011;66074;50.764;6.090;2023-03-08T15:04:37;11.35;;;10.13;;
19802;SDS011;66074;50.764;6.090;2023-03-08T15:07:03;11.85;;;10.85;;
19802;SDS011;66074;50.764;6.090;2023-03-08T15:09:29;13.70;;;12.40;;
19802;SDS011;66074;50.764;6.090;2023-03-08T15:11:56;11.05;;;10.15;;
19802;SDS011;66074;50.764;6.090;2023-03-08T15:14:26;11.32;;;10.20;;
19802;SDS011;66074;50.764;6.090;2023-03-08T15:16:53;13.45;;;12.25;;
19802;SDS011;66074;50.764;6.090;2023-03-08T15:19:25;13.18;;;12.07;;
19802;SDS011;66074;50.764;6.090;2023-03-08T15:21:51;16.73;;;15.23;;
19802;SDS011;66074;50.764;6.090;2023-03-08T15:24:17;12.85;;;11.70;;
19802;SDS011;66074;50.764;6.090;2023-03-08T15:26:43;12.45;;;11.25;;
19802;SDS011;66074;50.764;6.090;2023-03-08T15:29:18;13.13;;;11.93;;
19802;SDS011;66074;50.764;6.090;2023-03-08T15:31:50;12.27;;;11.07;;
19802;SDS011;66074;50.764;6.090;2023-03-08T15:34:16;12.30;;;11.20;;
19802;SDS011;66074;50.764;6.090;2023-03-08T15:36:42;11.75;;;10.75;;
19802;SDS011;66074;50.764;6.090;2023-03-08T15:39:08;11.85;;;10.80;;
19802;SDS011;66074;50.764;6.090;2023-03-08T15:41:36;10.98;;;10.05;;
19802;SDS011;66074;50.764;6.090;2023-03-08T15:44:02;11.60;;;10.65;;
19802;SDS011;66074;50.764;6.090;2023-03-08T15:46:27;12.55;;;11.43;;
19802;SDS011;66074;50.764;6.090;2023-03-08T15:48:53;11.93;;;10.82;;
19802;SDS011;66074;50.764;6.090;2023-03-08T15:51:19;12.63;;;11.52;;
19802;SDS011;66074;50.764;6.090;2023-03-08T15:53:47;12.30;;;11.00;;
19802;SDS011;66074;50.764;6.090;2023-03-08T15:56:13;11.98;;;10.80;;
19802;SDS011;66074;50.764;6.090;2023-03-08T15:58:39;12.35;;;11.25;;
19802;SDS011;66074;50.764;6.090;2023-03-08T16:01:05;13.43;;;12.33;;
19802;SDS011;66074;50.764;6.090;2023-03-08T16:03:31;12.65;;;11.35;;
19802;SDS011;66074;50.764;6.090;2023-03-08T16:05:59;13.05;;;11.95;;
19802;SDS011;66074;50.764;6.090;2023-03-08T16:08:26;13.25;;;11.98;;
19802;SDS011;66074;50.764;6.090;2023-03-08T16:10:53;12.60;;;11.40;;
19802;SDS011;66074;50.764;6.090;2023-03-08T16:13:19;11.10;;;10.20;;
19802;SDS011;66074;50.764;6.090;2023-03-08T16:15:47;13.02;;;11.85;;
19802;SDS011;66074;50.764;6.090;2023-03-08T16:18:13;12.50;;;11.30;;
19802;SDS011;66074;50.764;6.090;2023-03-08T16:20:39;13.80;;;12.45;;
19802;SDS011;66074;50.764;6.090;2023-03-08T16:23:05;13.60;;;12.30;;
19802;SDS011;66074;50.764;6.090;2023-03-08T16:25:31;13.00;;;11.65;;
19802;SDS011;66074;50.764;6.090;2023-03-08T16:27:57;13.80;;;12.60;;
19802;SDS011;66074;50.764;6.090;2023-03-08T16:30:22;13.55;;;12.35;;
19802;SDS011;66074;50.764;6.090;2023-03-08T16:32:51;12.70;;;11.60;;
19802;SDS011;66074;50.764;6.090;2023-03-08T16:35:17;14.00;;;12.90;;
19802;SDS011;66074;50.764;6.090;2023-03-08T16:37:43;11.38;;;10.48;;
19802;SDS011;66074;50.764;6.090;2023-03-08T16:40:09;11.57;;;10.57;;